sensor_id;sensor_type;location;lat;lon;timestamp;temperature;humidity
21298;DHT22;10808;48.010;11.326;2023-08-06T00:00:23;15.60;99.90
21298;DHT22;10808;48.010;11.326;2023-08-06T00:02:49;15.50;99.90
21298;DHT22;10808;48.010;11.326;2023-08-06T00:05:16;15.50;99.90
21298;DHT22;10808;48.010;11.326;2023-08-06T00:07:47;15.40;99.90
21298;DHT22;10808;48.010;11.326;2023-08-06T00:10:13;15.30;99.90
21298;DHT22;10808;48.010;11.326;2023-08-06T00:12:40;15.30;99.90
21298;DHT22;10808;48.010;11.326;2023-08-06T00:15:06;15.30;99.90
21298;DHT22;10808;48.010;11.326;2023-08-06T00:17:33;15.30;99.90
21298;DHT22;10808;48.010;11.326;2023-08-06T00:20:03;15.30;99.90
21298;DHT22;10808;48.010;11.326;2023-08-06T00:22:34;15.30;99.90
21298;DHT22;10808;48.010;11.326;2023-08-06T00:25:00;15.20;99.90
21298;DHT22;10808;48.010;11.326;2023-08-06T00:27:27;15.20;99.90
21298;DHT22;10808;48.010;11.326;2023-08-06T00:29:53;15.20;99.90
21298;DHT22;10808;48.010;11.326;2023-08-06T00:32:19;15.20;99.90
21298;DHT22;10808;48.010;11.326;2023-08-06T00:34:45;15.20;99.90
21298;DHT22;10808;48.010;11.326;2023-08-06T00:37:11;15.20;99.90
21298;DHT22;10808;48.010;11.326;2023-08-06T00:39:37;15.20;99.90
21298;DHT22;10808;48.010;11.326;2023-08-06T00:42:04;15.20;99.90
21298;DHT22;10808;48.010;11.326;2023-08-06T00:44:30;15.20;99.90
21298;DHT22;10808;48.010;11.326;2023-08-06T00:46:56;15.10;99.90
21298;DHT22;10808;48.010;11.326;2023-08-06T00:49:22;15.10;99.90
21298;DHT22;10808;48.010;11.326;2023-08-06T00:51:49;15.10;99.90
21298;DHT22;10808;48.010;11.326;2023-08-06T00:54:15;15.10;99.90
21298;DHT22;10808;48.010;11.326;2023-08-06T00:56:42;15.10;99.90
21298;DHT22;10808;48.010;11.326;2023-08-06T00:59:10;15.00;99.90
21298;DHT22;10808;48.010;11.326;2023-08-06T01:01:37;15.00;99.90
21298;DHT22;10808;48.010;11.326;2023-08-06T01:04:03;15.00;99.90
21298;DHT22;10808;48.010;11.326;2023-08-06T01:06:39;15.00;99.90
21298;DHT22;10808;48.010;11.326;2023-08-06T01:12:09;15.10;99.90
21298;DHT22;10808;48.010;11.326;2023-08-06T01:14:52;15.10;99.90
21298;DHT22;10808;48.010;11.326;2023-08-06T01:17:20;15.10;99.90
21298;DHT22;10808;48.010;11.326;2023-08-06T01:19:46;15.10;99.90
21298;DHT22;10808;48.010;11.326;2023-08-06T01:22:12;15.10;99.90
21298;DHT22;10808;48.010;11.326;2023-08-06T01:24:38;15.10;99.90
21298;DHT22;10808;48.010;11.326;2023-08-06T01:29:39;15.10;99.90
21298;DHT22;10808;48.010;11.326;2023-08-06T01:32:10;15.00;99.90
21298;DHT22;10808;48.010;11.326;2023-08-06T01:34:39;15.00;99.90
21298;DHT22;10808;48.010;11.326;2023-08-06T01:37:07;15.00;99.90
21298;DHT22;10808;48.010;11.326;2023-08-06T01:39:33;15.00;99.90
21298;DHT22;10808;48.010;11.326;2023-08-06T01:41:59;14.90;99.90
21298;DHT22;10808;48.010;11.326;2023-08-06T01:44:25;14.90;99.90
21298;DHT22;10808;48.010;11.326;2023-08-06T01:46:51;14.90;99.90
21298;DHT22;10808;48.010;11.326;2023-08-06T01:49:17;14.90;99.90
21298;DHT22;10808;48.010;11.326;2023-08-06T01:51:43;14.90;99.90
21298;DHT22;10808;48.010;11.326;2023-08-06T01:54:09;14.80;99.90
21298;DHT22;10808;48.010;11.326;2023-08-06T01:56:35;14.80;99.90
21298;DHT22;10808;48.010;11.326;2023-08-06T01:59:02;14.70;99.90
21298;DHT22;10808;48.010;11.326;2023-08-06T02:01:27;14.70;99.90
21298;DHT22;10808;48.010;11.326;2023-08-06T02:03:54;14.70;99.90
21298;DHT22;10808;48.010;11.326;2023-08-06T02:06:20;14.70;99.90
21298;DHT22;10808;48.010;11.326;2023-08-06T02:08:46;14.70;99.90
21298;DHT22;10808;48.010;11.326;2023-08-06T02:11:12;14.70;99.90
21298;DHT22;10808;48.010;11.326;2023-08-06T02:13:38;14.60;99.90
21298;DHT22;10808;48.010;11.326;2023-08-06T02:16:06;14.60;99.90
21298;DHT22;10808;48.010;11.326;2023-08-06T02:18:32;14.60;99.90
21298;DHT22;10808;48.010;11.326;2023-08-06T02:20:58;14.60;99.90
21298;DHT22;10808;48.010;11.326;2023-08-06T02:23:25;14.60;99.90
21298;DHT22;10808;48.010;11.326;2023-08-06T02:26:04;14.60;99.90
21298;DHT22;10808;48.010;11.326;2023-08-06T02:28:31;14.60;99.90
21298;DHT22;10808;48.010;11.326;2023-08-06T02:30:58;14.60;99.90
21298;DHT22;10808;48.010;11.326;2023-08-06T02:33:24;14.60;99.90
21298;DHT22;10808;48.010;11.326;2023-08-06T02:35:50;14.60;99.90
21298;DHT22;10808;48.010;11.326;2023-08-06T02:38:16;14.60;99.90
21298;DHT22;10808;48.010;11.326;2023-08-06T02:40:46;14.60;99.90
21298;DHT22;10808;48.010;11.326;2023-08-06T02:43:15;14.60;99.90
21298;DHT22;10808;48.010;11.326;2023-08-06T02:45:41;14.70;99.90
21298;DHT22;10808;48.010;11.326;2023-08-06T02:48:07;14.70;99.90
21298;DHT22;10808;48.010;11.326;2023-08-06T02:50:40;14.70;99.90
21298;DHT22;10808;48.010;11.326;2023-08-06T02:53:07;14.70;99.90
21298;DHT22;10808;48.010;11.326;2023-08-06T02:55:34;14.70;99.90
21298;DHT22;10808;48.010;11.326;2023-08-06T02:58:01;14.70;99.90
21298;DHT22;10808;48.010;11.326;2023-08-06T03:00:27;14.70;99.90
21298;DHT22;10808;48.010;11.326;2023-08-06T03:02:54;14.60;99.90
21298;DHT22;10808;48.010;11.326;2023-08-06T03:05:20;14.60;99.90
21298;DHT22;10808;48.010;11.326;2023-08-06T03:07:46;14.50;99.90
21298;DHT22;10808;48.010;11.326;2023-08-06T03:10:12;14.40;99.90
21298;DHT22;10808;48.010;11.326;2023-08-06T03:12:39;14.40;99.90
21298;DHT22;10808;48.010;11.326;2023-08-06T03:15:05;14.40;99.90
21298;DHT22;10808;48.010;11.326;2023-08-06T03:17:31;14.40;99.90
21298;DHT22;10808;48.010;11.326;2023-08-06T03:19:57;14.30;99.90
21298;DHT22;10808;48.010;11.326;2023-08-06T03:22:23;14.30;99.90
21298;DHT22;10808;48.010;11.326;2023-08-06T03:24:52;14.30;99.90
21298;DHT22;10808;48.010;11.326;2023-08-06T03:27:18;14.30;99.90
21298;DHT22;10808;48.010;11.326;2023-08-06T03:29:44;14.30;99.90
21298;DHT22;10808;48.010;11.326;2023-08-06T03:32:10;14.30;99.90
21298;DHT22;10808;48.010;11.326;2023-08-06T03:34:36;14.20;99.90
21298;DHT22;10808;48.010;11.326;2023-08-06T03:37:02;14.20;99.90
21298;DHT22;10808;48.010;11.326;2023-08-06T03:39:28;14.20;99.90
21298;DHT22;10808;48.010;11.326;2023-08-06T03:41:54;14.20;99.90
21298;DHT22;10808;48.010;11.326;2023-08-06T03:44:20;14.20;99.90
21298;DHT22;10808;48.010;11.326;2023-08-06T03:46:46;14.20;99.90
21298;DHT22;10808;48.010;11.326;2023-08-06T03:49:12;14.20;99.90
21298;DHT22;10808;48.010;11.326;2023-08-06T03:51:38;14.20;99.90
21298;DHT22;10808;48.010;11.326;2023-08-06T03:54:04;14.20;99.90
21298;DHT22;10808;48.010;11.326;2023-08-06T03:56:30;14.20;99.90
21298;DHT22;10808;48.010;11.326;2023-08-06T03:58:56;14.20;99.90
21298;DHT22;10808;48.010;11.326;2023-08-06T04:01:22;14.20;99.90
21298;DHT22;10808;48.010;11.326;2023-08-06T04:03:48;14.20;99.90
21298;DHT22;10808;48.010;11.326;2023-08-06T04:06:14;14.20;99.90
21298;DHT22;10808;48.010;11.326;2023-08-06T04:08:40;14.20;99.90
21298;DHT22;10808;48.010;11.326;2023-08-06T04:11:06;14.30;99.90
21298;DHT22;10808;48.010;11.326;2023-08-06T04:13:32;14.30;99.90
21298;DHT22;10808;48.010;11.326;2023-08-06T04:16:04;14.30;99.90
21298;DHT22;10808;48.010;11.326;2023-08-06T04:18:31;14.30;99.90
21298;DHT22;10808;48.010;11.326;2023-08-06T04:20:57;14.30;99.90
21298;DHT22;10808;48.010;11.326;2023-08-06T04:23:23;14.30;99.90
21298;DHT22;10808;48.010;11.326;2023-08-06T04:25:50;14.30;99.90
21298;DHT22;10808;48.010;11.326;2023-08-06T04:28:16;14.30;99.90
21298;DHT22;10808;48.010;11.326;2023-08-06T04:30:42;14.30;99.90
21298;DHT22;10808;48.010;11.326;2023-08-06T04:33:08;14.30;99.90
21298;DHT22;10808;48.010;11.326;2023-08-06T04:35:34;14.30;99.90
21298;DHT22;10808;48.010;11.326;2023-08-06T04:38:00;14.30;99.90
21298;DHT22;10808;48.010;11.326;2023-08-06T04:40:26;14.30;99.90
21298;DHT22;10808;48.010;11.326;2023-08-06T04:42:52;14.30;99.90
21298;DHT22;10808;48.010;11.326;2023-08-06T04:45:18;14.30;99.90
21298;DHT22;10808;48.010;11.326;2023-08-06T04:47:44;14.30;99.90
21298;DHT22;10808;48.010;11.326;2023-08-06T04:50:10;14.40;99.90
21298;DHT22;10808;48.010;11.326;2023-08-06T04:52:37;14.40;99.90
21298;DHT22;10808;48.010;11.326;2023-08-06T04:55:03;14.40;99.90
21298;DHT22;10808;48.010;11.326;2023-08-06T04:57:31;14.40;99.90
21298;DHT22;10808;48.010;11.326;2023-08-06T04:59:57;14.40;99.90
21298;DHT22;10808;48.010;11.326;2023-08-06T05:02:23;14.40;99.90
21298;DHT22;10808;48.010;11.326;2023-08-06T05:04:49;14.50;99.90
21298;DHT22;10808;48.010;11.326;2023-08-06T05:07:15;14.50;99.90
21298;DHT22;10808;48.010;11.326;2023-08-06T05:09:41;14.50;99.90
21298;DHT22;10808;48.010;11.326;2023-08-06T05:12:08;14.60;99.90
21298;DHT22;10808;48.010;11.326;2023-08-06T05:14:34;14.60;99.90
21298;DHT22;10808;48.010;11.326;2023-08-06T05:17:00;14.60;99.90
21298;DHT22;10808;48.010;11.326;2023-08-06T05:19:28;14.60;99.90
21298;DHT22;10808;48.010;11.326;2023-08-06T05:21:54;14.60;99.90
21298;DHT22;10808;48.010;11.326;2023-08-06T05:24:20;14.60;99.90
21298;DHT22;10808;48.010;11.326;2023-08-06T05:26:46;14.60;99.90
21298;DHT22;10808;48.010;11.326;2023-08-06T05:29:13;14.70;99.90
21298;DHT22;10808;48.010;11.326;2023-08-06T05:31:39;14.70;99.90
21298;DHT22;10808;48.010;11.326;2023-08-06T05:34:05;14.70;99.90
21298;DHT22;10808;48.010;11.326;2023-08-06T05:36:31;14.70;99.90
21298;DHT22;10808;48.010;11.326;2023-08-06T05:38:57;14.70;99.90
21298;DHT22;10808;48.010;11.326;2023-08-06T05:41:23;14.70;99.90
21298;DHT22;10808;48.010;11.326;2023-08-06T05:43:49;14.80;99.90
21298;DHT22;10808;48.010;11.326;2023-08-06T05:46:15;14.80;99.90
21298;DHT22;10808;48.010;11.326;2023-08-06T05:48:41;14.90;99.90
21298;DHT22;10808;48.010;11.326;2023-08-06T05:51:07;14.90;99.90
21298;DHT22;10808;48.010;11.326;2023-08-06T05:53:33;14.90;99.90
21298;DHT22;10808;48.010;11.326;2023-08-06T05:55:59;14.90;99.90
21298;DHT22;10808;48.010;11.326;2023-08-06T05:58:25;14.80;99.90
21298;DHT22;10808;48.010;11.326;2023-08-06T06:00:54;14.90;99.90
21298;DHT22;10808;48.010;11.326;2023-08-06T06:03:20;14.90;99.90
21298;DHT22;10808;48.010;11.326;2023-08-06T06:05:46;14.90;99.90
21298;DHT22;10808;48.010;11.326;2023-08-06T06:08:12;14.90;99.90
21298;DHT22;10808;48.010;11.326;2023-08-06T06:10:41;15.00;99.90
21298;DHT22;10808;48.010;11.326;2023-08-06T06:13:08;15.10;99.90
21298;DHT22;10808;48.010;11.326;2023-08-06T06:15:34;15.20;99.90
21298;DHT22;10808;48.010;11.326;2023-08-06T06:18:00;15.20;99.90
21298;DHT22;10808;48.010;11.326;2023-08-06T06:20:26;15.30;99.90
21298;DHT22;10808;48.010;11.326;2023-08-06T06:22:53;15.30;99.90
21298;DHT22;10808;48.010;11.326;2023-08-06T06:25:19;15.40;99.90
21298;DHT22;10808;48.010;11.326;2023-08-06T06:27:45;15.50;99.90
21298;DHT22;10808;48.010;11.326;2023-08-06T06:30:12;15.60;99.90
21298;DHT22;10808;48.010;11.326;2023-08-06T06:32:38;15.70;99.90
21298;DHT22;10808;48.010;11.326;2023-08-06T06:35:06;15.80;99.90
21298;DHT22;10808;48.010;11.326;2023-08-06T06:37:32;15.90;99.90
21298;DHT22;10808;48.010;11.326;2023-08-06T06:39:58;15.90;99.90
21298;DHT22;10808;48.010;11.326;2023-08-06T06:42:24;15.90;99.90
21298;DHT22;10808;48.010;11.326;2023-08-06T06:44:50;15.90;99.90
21298;DHT22;10808;48.010;11.326;2023-08-06T06:47:16;15.90;99.90
21298;DHT22;10808;48.010;11.326;2023-08-06T06:49:42;16.00;99.90
21298;DHT22;10808;48.010;11.326;2023-08-06T06:52:08;16.10;99.90
21298;DHT22;10808;48.010;11.326;2023-08-06T06:54:34;16.10;99.90
21298;DHT22;10808;48.010;11.326;2023-08-06T06:57:00;16.10;99.90
21298;DHT22;10808;48.010;11.326;2023-08-06T06:59:26;16.10;99.90
21298;DHT22;10808;48.010;11.326;2023-08-06T07:01:52;16.10;99.90
21298;DHT22;10808;48.010;11.326;2023-08-06T07:04:18;16.00;99.90
21298;DHT22;10808;48.010;11.326;2023-08-06T07:06:44;15.90;99.90
21298;DHT22;10808;48.010;11.326;2023-08-06T07:09:10;15.90;99.90
21298;DHT22;10808;48.010;11.326;2023-08-06T07:11:43;15.70;99.90
21298;DHT22;10808;48.010;11.326;2023-08-06T07:14:09;15.70;99.90
21298;DHT22;10808;48.010;11.326;2023-08-06T07:16:35;15.60;99.90
21298;DHT22;10808;48.010;11.326;2023-08-06T07:19:01;15.60;99.90
21298;DHT22;10808;48.010;11.326;2023-08-06T07:21:27;15.50;99.90
21298;DHT22;10808;48.010;11.326;2023-08-06T07:23:53;15.50;99.90
21298;DHT22;10808;48.010;11.326;2023-08-06T07:26:20;15.50;99.90
21298;DHT22;10808;48.010;11.326;2023-08-06T07:28:46;15.50;99.90
21298;DHT22;10808;48.010;11.326;2023-08-06T07:31:12;15.50;99.90
21298;DHT22;10808;48.010;11.326;2023-08-06T07:33:38;15.60;99.90
21298;DHT22;10808;48.010;11.326;2023-08-06T07:36:09;15.70;99.90
21298;DHT22;10808;48.010;11.326;2023-08-06T07:38:35;15.70;99.90
21298;DHT22;10808;48.010;11.326;2023-08-06T07:41:09;15.70;99.90
21298;DHT22;10808;48.010;11.326;2023-08-06T07:43:35;15.80;99.90
21298;DHT22;10808;48.010;11.326;2023-08-06T07:46:02;15.80;99.90
21298;DHT22;10808;48.010;11.326;2023-08-06T07:48:28;15.90;99.90
21298;DHT22;10808;48.010;11.326;2023-08-06T07:53:59;16.10;99.90
21298;DHT22;10808;48.010;11.326;2023-08-06T07:56:25;16.20;99.90
21298;DHT22;10808;48.010;11.326;2023-08-06T07:58:51;16.20;99.90
21298;DHT22;10808;48.010;11.326;2023-08-06T08:01:17;16.30;99.90
21298;DHT22;10808;48.010;11.326;2023-08-06T08:03:43;16.30;99.90
21298;DHT22;10808;48.010;11.326;2023-08-06T08:06:09;16.30;99.90
21298;DHT22;10808;48.010;11.326;2023-08-06T08:08:35;16.40;99.90
21298;DHT22;10808;48.010;11.326;2023-08-06T08:11:05;16.40;99.90
21298;DHT22;10808;48.010;11.326;2023-08-06T08:13:31;16.50;99.90
21298;DHT22;10808;48.010;11.326;2023-08-06T08:15:58;16.70;99.90
21298;DHT22;10808;48.010;11.326;2023-08-06T08:18:25;16.90;99.90
21298;DHT22;10808;48.010;11.326;2023-08-06T08:20:51;17.00;99.90
21298;DHT22;10808;48.010;11.326;2023-08-06T08:23:17;17.00;99.90
21298;DHT22;10808;48.010;11.326;2023-08-06T08:25:43;17.00;99.90
21298;DHT22;10808;48.010;11.326;2023-08-06T08:28:09;17.00;99.90
21298;DHT22;10808;48.010;11.326;2023-08-06T08:30:35;17.00;99.90
21298;DHT22;10808;48.010;11.326;2023-08-06T08:33:01;16.80;99.90
21298;DHT22;10808;48.010;11.326;2023-08-06T08:35:27;16.80;99.90
21298;DHT22;10808;48.010;11.326;2023-08-06T08:37:53;16.80;99.90
21298;DHT22;10808;48.010;11.326;2023-08-06T08:40:22;16.70;99.90
21298;DHT22;10808;48.010;11.326;2023-08-06T08:42:52;16.70;99.90
21298;DHT22;10808;48.010;11.326;2023-08-06T08:45:20;16.60;99.90
21298;DHT22;10808;48.010;11.326;2023-08-06T08:47:48;16.60;99.90
21298;DHT22;10808;48.010;11.326;2023-08-06T08:50:14;16.60;99.90
21298;DHT22;10808;48.010;11.326;2023-08-06T08:52:41;16.70;99.90
21298;DHT22;10808;48.010;11.326;2023-08-06T08:55:08;16.70;99.90
21298;DHT22;10808;48.010;11.326;2023-08-06T08:57:34;16.70;99.90
21298;DHT22;10808;48.010;11.326;2023-08-06T09:00:00;16.70;99.90
21298;DHT22;10808;48.010;11.326;2023-08-06T09:02:28;16.60;99.90
21298;DHT22;10808;48.010;11.326;2023-08-06T09:04:58;16.70;99.90
21298;DHT22;10808;48.010;11.326;2023-08-06T09:07:29;16.60;99.90
21298;DHT22;10808;48.010;11.326;2023-08-06T09:09:57;16.60;99.90
21298;DHT22;10808;48.010;11.326;2023-08-06T09:12:23;16.40;99.90
21298;DHT22;10808;48.010;11.326;2023-08-06T09:14:49;16.30;99.90
21298;DHT22;10808;48.010;11.326;2023-08-06T09:17:16;16.20;99.90
21298;DHT22;10808;48.010;11.326;2023-08-06T09:19:46;16.10;99.90
21298;DHT22;10808;48.010;11.326;2023-08-06T09:22:14;15.90;99.90
21298;DHT22;10808;48.010;11.326;2023-08-06T09:24:41;15.80;99.90
21298;DHT22;10808;48.010;11.326;2023-08-06T09:27:14;15.80;99.90
21298;DHT22;10808;48.010;11.326;2023-08-06T09:29:42;15.80;99.90
21298;DHT22;10808;48.010;11.326;2023-08-06T09:32:08;15.70;99.90
21298;DHT22;10808;48.010;11.326;2023-08-06T09:34:34;15.70;99.90
21298;DHT22;10808;48.010;11.326;2023-08-06T09:37:00;15.80;99.90
21298;DHT22;10808;48.010;11.326;2023-08-06T09:39:28;16.00;99.90
21298;DHT22;10808;48.010;11.326;2023-08-06T09:41:59;16.20;99.90
21298;DHT22;10808;48.010;11.326;2023-08-06T09:44:27;16.30;99.90
21298;DHT22;10808;48.010;11.326;2023-08-06T09:46:55;16.40;99.90
21298;DHT22;10808;48.010;11.326;2023-08-06T09:49:26;16.30;99.90
21298;DHT22;10808;48.010;11.326;2023-08-06T09:51:53;16.30;99.90
21298;DHT22;10808;48.010;11.326;2023-08-06T09:54:24;16.30;99.90
21298;DHT22;10808;48.010;11.326;2023-08-06T09:56:53;16.30;99.90
21298;DHT22;10808;48.010;11.326;2023-08-06T09:59:20;16.40;99.90
21298;DHT22;10808;48.010;11.326;2023-08-06T10:01:46;16.50;99.90
21298;DHT22;10808;48.010;11.326;2023-08-06T10:04:14;16.50;99.90
21298;DHT22;10808;48.010;11.326;2023-08-06T10:06:43;16.50;99.90
21298;DHT22;10808;48.010;11.326;2023-08-06T10:09:11;16.40;99.90
21298;DHT22;10808;48.010;11.326;2023-08-06T10:11:39;16.30;99.90
21298;DHT22;10808;48.010;11.326;2023-08-06T10:14:20;16.20;99.90
21298;DHT22;10808;48.010;11.326;2023-08-06T10:16:47;16.40;99.90
21298;DHT22;10808;48.010;11.326;2023-08-06T10:19:14;16.50;99.90
21298;DHT22;10808;48.010;11.326;2023-08-06T10:21:41;16.60;99.90
21298;DHT22;10808;48.010;11.326;2023-08-06T10:24:07;16.70;99.90
21298;DHT22;10808;48.010;11.326;2023-08-06T10:26:37;16.70;99.90
21298;DHT22;10808;48.010;11.326;2023-08-06T10:29:35;16.70;99.90
21298;DHT22;10808;48.010;11.326;2023-08-06T10:32:02;16.70;99.90
21298;DHT22;10808;48.010;11.326;2023-08-06T10:37:19;16.80;99.90
21298;DHT22;10808;48.010;11.326;2023-08-06T10:39:49;16.80;99.90
21298;DHT22;10808;48.010;11.326;2023-08-06T10:42:26;16.80;99.90
21298;DHT22;10808;48.010;11.326;2023-08-06T10:45:12;16.80;99.90
21298;DHT22;10808;48.010;11.326;2023-08-06T10:47:39;16.70;99.90
21298;DHT22;10808;48.010;11.326;2023-08-06T10:50:17;16.70;99.90
21298;DHT22;10808;48.010;11.326;2023-08-06T10:52:44;16.70;99.90
21298;DHT22;10808;48.010;11.326;2023-08-06T10:55:10;16.70;99.90
21298;DHT22;10808;48.010;11.326;2023-08-06T10:57:36;16.70;99.90
21298;DHT22;10808;48.010;11.326;2023-08-06T11:00:07;16.70;99.90
21298;DHT22;10808;48.010;11.326;2023-08-06T11:02:35;16.80;99.90
21298;DHT22;10808;48.010;11.326;2023-08-06T11:05:06;16.80;99.90
21298;DHT22;10808;48.010;11.326;2023-08-06T11:07:33;16.70;99.90
21298;DHT22;10808;48.010;11.326;2023-08-06T11:10:11;16.80;99.90
21298;DHT22;10808;48.010;11.326;2023-08-06T11:12:37;17.00;99.90
21298;DHT22;10808;48.010;11.326;2023-08-06T11:15:04;17.00;99.90
21298;DHT22;10808;48.010;11.326;2023-08-06T11:17:32;17.00;99.90
21298;DHT22;10808;48.010;11.326;2023-08-06T11:19:59;17.10;99.90
21298;DHT22;10808;48.010;11.326;2023-08-06T11:22:26;17.00;99.90
21298;DHT22;10808;48.010;11.326;2023-08-06T11:24:53;16.90;99.90
21298;DHT22;10808;48.010;11.326;2023-08-06T11:27:19;16.70;99.90
21298;DHT22;10808;48.010;11.326;2023-08-06T11:29:45;16.60;99.90
21298;DHT22;10808;48.010;11.326;2023-08-06T11:32:12;16.70;99.90
21298;DHT22;10808;48.010;11.326;2023-08-06T11:34:39;16.60;99.90
21298;DHT22;10808;48.010;11.326;2023-08-06T11:37:06;16.60;99.90
21298;DHT22;10808;48.010;11.326;2023-08-06T11:39:35;16.60;99.90
21298;DHT22;10808;48.010;11.326;2023-08-06T11:42:08;16.60;99.90
21298;DHT22;10808;48.010;11.326;2023-08-06T11:44:35;16.60;99.90
21298;DHT22;10808;48.010;11.326;2023-08-06T11:47:03;16.50;99.90
21298;DHT22;10808;48.010;11.326;2023-08-06T11:52:13;16.30;99.90
21298;DHT22;10808;48.010;11.326;2023-08-06T11:54:39;16.30;99.90
21298;DHT22;10808;48.010;11.326;2023-08-06T11:57:06;16.20;99.90
21298;DHT22;10808;48.010;11.326;2023-08-06T11:59:32;16.30;99.90
21298;DHT22;10808;48.010;11.326;2023-08-06T12:02:03;16.30;99.90
21298;DHT22;10808;48.010;11.326;2023-08-06T12:04:32;16.30;99.90
21298;DHT22;10808;48.010;11.326;2023-08-06T12:07:07;16.30;99.90
21298;DHT22;10808;48.010;11.326;2023-08-06T12:09:33;16.30;99.90
21298;DHT22;10808;48.010;11.326;2023-08-06T12:11:59;16.40;99.90
21298;DHT22;10808;48.010;11.326;2023-08-06T12:14:25;16.60;99.90
21298;DHT22;10808;48.010;11.326;2023-08-06T12:16:51;16.70;99.90
21298;DHT22;10808;48.010;11.326;2023-08-06T12:19:17;16.80;99.90
21298;DHT22;10808;48.010;11.326;2023-08-06T12:21:43;16.80;99.90
21298;DHT22;10808;48.010;11.326;2023-08-06T12:24:09;16.90;99.90
21298;DHT22;10808;48.010;11.326;2023-08-06T12:26:36;17.00;99.90
21298;DHT22;10808;48.010;11.326;2023-08-06T12:29:02;17.00;99.90
21298;DHT22;10808;48.010;11.326;2023-08-06T12:31:28;16.90;99.90
21298;DHT22;10808;48.010;11.326;2023-08-06T12:33:54;16.90;99.90
21298;DHT22;10808;48.010;11.326;2023-08-06T12:36:20;16.90;99.90
21298;DHT22;10808;48.010;11.326;2023-08-06T12:38:47;16.90;99.90
21298;DHT22;10808;48.010;11.326;2023-08-06T12:41:13;16.90;99.90
21298;DHT22;10808;48.010;11.326;2023-08-06T12:43:39;16.80;99.90
21298;DHT22;10808;48.010;11.326;2023-08-06T12:46:05;16.80;99.90
21298;DHT22;10808;48.010;11.326;2023-08-06T12:48:31;16.60;99.90
21298;DHT22;10808;48.010;11.326;2023-08-06T12:50:57;16.50;99.90
21298;DHT22;10808;48.010;11.326;2023-08-06T12:53:23;16.40;99.90
21298;DHT22;10808;48.010;11.326;2023-08-06T12:55:49;16.20;99.90
21298;DHT22;10808;48.010;11.326;2023-08-06T12:58:15;16.10;99.90
21298;DHT22;10808;48.010;11.326;2023-08-06T13:00:41;16.00;99.90
21298;DHT22;10808;48.010;11.326;2023-08-06T13:03:07;15.80;99.90
21298;DHT22;10808;48.010;11.326;2023-08-06T13:05:33;15.60;99.90
21298;DHT22;10808;48.010;11.326;2023-08-06T13:08:05;15.50;99.90
21298;DHT22;10808;48.010;11.326;2023-08-06T13:10:31;15.40;99.90
21298;DHT22;10808;48.010;11.326;2023-08-06T13:12:57;15.30;99.90
21298;DHT22;10808;48.010;11.326;2023-08-06T13:15:23;15.30;99.90
21298;DHT22;10808;48.010;11.326;2023-08-06T13:17:49;15.30;99.90
21298;DHT22;10808;48.010;11.326;2023-08-06T13:20:15;15.30;99.90
21298;DHT22;10808;48.010;11.326;2023-08-06T13:22:41;15.30;99.90
21298;DHT22;10808;48.010;11.326;2023-08-06T13:25:07;15.30;99.90
21298;DHT22;10808;48.010;11.326;2023-08-06T13:27:33;15.30;99.90
21298;DHT22;10808;48.010;11.326;2023-08-06T13:29:59;15.20;99.90
21298;DHT22;10808;48.010;11.326;2023-08-06T13:32:25;15.10;99.90
21298;DHT22;10808;48.010;11.326;2023-08-06T13:34:51;15.10;99.90
21298;DHT22;10808;48.010;11.326;2023-08-06T13:37:17;15.00;99.90
21298;DHT22;10808;48.010;11.326;2023-08-06T13:39:43;14.90;99.90
21298;DHT22;10808;48.010;11.326;2023-08-06T13:42:09;14.80;99.90
21298;DHT22;10808;48.010;11.326;2023-08-06T13:44:35;14.80;99.90
21298;DHT22;10808;48.010;11.326;2023-08-06T13:47:02;14.70;99.90
21298;DHT22;10808;48.010;11.326;2023-08-06T13:49:28;14.80;99.90
21298;DHT22;10808;48.010;11.326;2023-08-06T13:51:54;14.80;99.90
21298;DHT22;10808;48.010;11.326;2023-08-06T13:54:20;14.70;99.90
21298;DHT22;10808;48.010;11.326;2023-08-06T13:56:46;14.70;99.90
21298;DHT22;10808;48.010;11.326;2023-08-06T13:59:12;14.80;99.90
21298;DHT22;10808;48.010;11.326;2023-08-06T14:01:40;14.80;99.90
21298;DHT22;10808;48.010;11.326;2023-08-06T14:04:06;14.90;99.90
21298;DHT22;10808;48.010;11.326;2023-08-06T14:06:32;14.90;99.90
21298;DHT22;10808;48.010;11.326;2023-08-06T14:08:58;14.90;99.90
21298;DHT22;10808;48.010;11.326;2023-08-06T14:11:24;14.90;99.90
21298;DHT22;10808;48.010;11.326;2023-08-06T14:13:50;14.90;99.90
21298;DHT22;10808;48.010;11.326;2023-08-06T14:16:16;14.80;99.90
21298;DHT22;10808;48.010;11.326;2023-08-06T14:18:42;14.80;99.90
21298;DHT22;10808;48.010;11.326;2023-08-06T14:21:08;14.80;99.90
21298;DHT22;10808;48.010;11.326;2023-08-06T14:23:35;14.70;99.90
21298;DHT22;10808;48.010;11.326;2023-08-06T14:26:01;14.70;99.90
21298;DHT22;10808;48.010;11.326;2023-08-06T14:28:27;14.60;99.90
21298;DHT22;10808;48.010;11.326;2023-08-06T14:30:53;14.50;99.90
21298;DHT22;10808;48.010;11.326;2023-08-06T14:33:19;14.50;99.90
21298;DHT22;10808;48.010;11.326;2023-08-06T14:35:45;14.50;99.90
21298;DHT22;10808;48.010;11.326;2023-08-06T14:38:11;14.40;99.90
21298;DHT22;10808;48.010;11.326;2023-08-06T14:40:37;14.40;99.90
21298;DHT22;10808;48.010;11.326;2023-08-06T14:43:05;14.40;99.90
21298;DHT22;10808;48.010;11.326;2023-08-06T14:45:32;14.30;99.90
21298;DHT22;10808;48.010;11.326;2023-08-06T14:47:58;14.30;99.90
21298;DHT22;10808;48.010;11.326;2023-08-06T14:50:24;14.40;99.90
21298;DHT22;10808;48.010;11.326;2023-08-06T14:52:50;14.30;99.90
21298;DHT22;10808;48.010;11.326;2023-08-06T14:55:25;14.20;99.90
21298;DHT22;10808;48.010;11.326;2023-08-06T14:57:52;14.20;99.90
21298;DHT22;10808;48.010;11.326;2023-08-06T15:00:21;14.20;99.90
21298;DHT22;10808;48.010;11.326;2023-08-06T15:02:47;14.20;99.90
21298;DHT22;10808;48.010;11.326;2023-08-06T15:05:14;14.10;99.90
21298;DHT22;10808;48.010;11.326;2023-08-06T15:07:40;14.10;99.90
21298;DHT22;10808;48.010;11.326;2023-08-06T15:10:06;14.00;99.90
21298;DHT22;10808;48.010;11.326;2023-08-06T15:12:32;14.00;99.90
21298;DHT22;10808;48.010;11.326;2023-08-06T15:14:59;14.00;99.90
21298;DHT22;10808;48.010;11.326;2023-08-06T15:17:26;14.00;99.90
21298;DHT22;10808;48.010;11.326;2023-08-06T15:19:57;14.00;99.90
21298;DHT22;10808;48.010;11.326;2023-08-06T15:22:25;14.10;99.90
21298;DHT22;10808;48.010;11.326;2023-08-06T15:24:51;14.10;99.90
21298;DHT22;10808;48.010;11.326;2023-08-06T15:27:17;14.10;99.90